Buffalo (BUF/KBUF)

Information

Location
Buffalo, NY
Local Time
20:09 / 8:09 pm
GMT Time
00:09 / 12:09 am
Gates
Unassigned
No FAA reported delays
METAR KBUF 222354Z 31007KT 10SM CLR M04/M15 A3050 RMK AO2 SLP340 T10391150 11028 21050 51006
TAF KBUF 222320Z 2300/2324 30012KT P6SM SKC FM230200 32006KT P6SM SKC FM230400 00000KT P6SM SKC FM231400 18004KT P6SM SCT200 FM231800 22006KT P6SM SCT150 FM232200 16005KT P6SM BKN120
  • No charts available